createdAt,value
2018-01-10T00:02:26.191Z,69.84
2018-01-10T00:04:52.565Z,70.00
2018-01-10T00:07:18.897Z,70.33
2018-01-10T00:09:45.175Z,71.05
2018-01-10T00:12:11.642Z,71.59
2018-01-10T00:14:37.963Z,71.74
2018-01-10T00:17:04.227Z,72.04
2018-01-10T00:19:30.558Z,72.12
2018-01-10T00:21:57.046Z,72.10
2018-01-10T00:24:23.355Z,72.19
2018-01-10T00:26:50.459Z,72.93
2018-01-10T00:29:16.835Z,73.11
2018-01-10T00:31:43.119Z,73.02
2018-01-10T00:34:09.436Z,72.87
2018-01-10T00:36:35.759Z,73.09
2018-01-10T00:39:02.062Z,73.46
2018-01-10T00:41:29.087Z,73.89
2018-01-10T00:43:56.162Z,73.83
2018-01-10T00:46:22.512Z,73.73
2018-01-10T00:48:48.816Z,73.91
2018-01-10T00:51:16.566Z,74.08
2018-01-10T00:53:43.631Z,74.25
2018-01-10T00:56:10.726Z,74.58
2018-01-10T00:58:37.058Z,74.57
2018-01-10T01:01:03.371Z,74.96
2018-01-10T01:03:29.655Z,74.98
2018-01-10T01:05:56.703Z,75.22
2018-01-10T01:08:22.987Z,75.45
2018-01-10T01:10:49.339Z,75.52
2018-01-10T01:13:15.639Z,75.46
2018-01-10T01:15:41.939Z,75.56
2018-01-10T01:18:08.994Z,75.44
2018-01-10T01:20:35.284Z,75.35
2018-01-10T01:23:02.338Z,75.18
2018-01-10T01:25:28.649Z,74.74
2018-01-10T01:27:55.002Z,75.18
2018-01-10T01:30:21.276Z,75.32
2018-01-10T01:32:47.538Z,75.32
2018-01-10T01:35:13.840Z,75.42
2018-01-10T01:37:40.110Z,75.65
2018-01-10T01:40:06.593Z,75.63
2018-01-10T01:42:32.874Z,75.78
2018-01-10T01:44:59.156Z,75.90
2018-01-10T01:47:28.277Z,75.99
2018-01-10T01:49:54.597Z,76.26
2018-01-10T01:52:20.894Z,76.32
2018-01-10T01:54:47.942Z,76.20
2018-01-10T01:57:14.974Z,75.85
2018-01-10T01:59:41.285Z,75.86
2018-01-10T02:02:07.621Z,75.83
2018-01-10T02:04:33.899Z,75.67
2018-01-10T02:07:00.235Z,75.79
2018-01-10T02:09:26.524Z,76.26
2018-01-10T02:11:52.828Z,76.32
2018-01-10T02:14:19.129Z,76.23
2018-01-10T02:16:45.412Z,76.46
2018-01-10T02:19:11.682Z,76.39
2018-01-10T02:21:37.992Z,76.31
2018-01-10T02:24:05.086Z,76.14
2018-01-10T02:26:31.372Z,76.45
2018-01-10T02:28:57.760Z,76.66
2018-01-10T02:31:24.031Z,76.73
2018-01-10T02:33:58.075Z,76.37
2018-01-10T02:36:24.368Z,76.43
2018-01-10T02:38:50.666Z,75.89
2018-01-10T02:41:16.966Z,75.57
2018-01-10T02:43:43.300Z,75.00
2018-01-10T02:46:09.598Z,75.27
2018-01-10T02:48:35.894Z,74.83
2018-01-10T02:51:02.184Z,75.40
2018-01-10T02:53:28.518Z,76.21
2018-01-10T02:55:54.836Z,76.42
2018-01-10T02:58:21.902Z,76.28
2018-01-10T03:00:48.224Z,76.60
2018-01-10T03:03:21.443Z,77.55
2018-01-10T03:05:47.776Z,78.20
2018-01-10T03:08:14.036Z,78.69
2018-01-10T03:10:40.372Z,78.88
2018-01-10T03:13:06.669Z,78.31
2018-01-10T03:15:32.963Z,77.83
2018-01-10T03:17:59.314Z,77.55
2018-01-10T03:20:25.616Z,77.27
2018-01-10T03:22:52.647Z,77.75
2018-01-10T03:25:18.998Z,78.29
2018-01-10T03:27:46.048Z,78.24
2018-01-10T03:30:13.120Z,77.89
2018-01-10T03:32:46.400Z,77.75
2018-01-10T03:35:12.712Z,77.58
2018-01-10T03:37:39.735Z,78.00
2018-01-10T03:40:06.064Z,78.13
2018-01-10T03:42:32.420Z,78.13
2018-01-10T03:44:59.444Z,78.27
2018-01-10T03:47:25.772Z,78.50
2018-01-10T03:49:52.052Z,78.09
2018-01-10T03:52:18.376Z,77.91
2018-01-10T03:54:44.682Z,78.18
2018-01-10T03:57:10.958Z,77.50
2018-01-10T03:59:37.672Z,76.84
2018-01-10T04:02:03.962Z,77.21
2018-01-10T04:04:30.267Z,77.48
2018-01-10T04:06:56.563Z,77.55
2018-01-10T04:09:22.879Z,77.10
2018-01-10T04:11:49.220Z,77.21
2018-01-10T04:14:15.573Z,77.44
2018-01-10T04:16:41.872Z,77.80
2018-01-10T04:19:08.929Z,79.09
2018-01-10T04:21:35.944Z,78.49
2018-01-10T04:24:02.262Z,78.61
2018-01-10T04:26:28.549Z,78.43
2018-01-10T04:28:54.921Z,77.49
2018-01-10T04:31:21.285Z,77.30
2018-01-10T04:33:47.600Z,77.53
2018-01-10T04:36:13.939Z,78.25
2018-01-10T04:38:40.256Z,78.81
2018-01-10T04:41:06.580Z,78.59
2018-01-10T04:43:32.883Z,78.08
2018-01-10T04:45:59.199Z,77.60
2018-01-10T04:48:25.492Z,77.45
2018-01-10T04:50:51.812Z,77.49
2018-01-10T04:53:18.236Z,78.03
2018-01-10T04:55:44.540Z,77.74
2018-01-10T04:58:10.848Z,77.80
2018-01-10T05:00:38.145Z,77.78
2018-01-10T05:03:04.477Z,77.75
2018-01-10T05:05:30.752Z,77.83
2018-01-10T05:07:57.739Z,77.55
2018-01-10T05:10:23.961Z,77.54
2018-01-10T05:12:50.393Z,77.01
2018-01-10T05:15:16.639Z,77.14
2018-01-10T05:17:42.888Z,76.98
2018-01-10T05:20:09.171Z,77.05
2018-01-10T05:22:35.428Z,76.93
2018-01-10T05:25:01.637Z,76.81
2018-01-10T05:27:27.889Z,77.38
2018-01-10T05:29:54.277Z,77.55
2018-01-10T05:32:21.279Z,78.11
2018-01-10T05:34:47.521Z,78.10
2018-01-10T05:37:13.750Z,78.22
2018-01-10T05:39:39.987Z,78.46
2018-01-10T05:42:06.222Z,78.30
2018-01-10T05:44:32.484Z,78.59
2018-01-10T05:46:58.764Z,79.30
2018-01-10T05:49:25.032Z,78.77
2018-01-10T05:51:52.008Z,78.67
2018-01-10T05:54:18.243Z,78.32
2018-01-10T05:56:44.528Z,78.14
2018-01-10T05:59:11.489Z,77.22
2018-01-10T06:01:37.740Z,77.77
2018-01-10T06:04:04.000Z,77.82
2018-01-10T06:06:30.324Z,78.65
2018-01-10T06:08:56.606Z,79.38
2018-01-10T06:11:23.639Z,79.55
2018-01-10T06:13:49.872Z,79.26
2018-01-10T06:16:16.892Z,78.76
2018-01-10T06:18:43.184Z,77.96
2018-01-10T06:21:09.403Z,77.85
2018-01-10T06:23:35.683Z,78.24
2018-01-10T06:26:01.942Z,78.01
2018-01-10T06:28:28.937Z,78.15
2018-01-10T06:30:55.193Z,78.79
2018-01-10T06:33:21.433Z,78.75
2018-01-10T06:35:47.713Z,78.74
2018-01-10T06:38:13.968Z,79.29
2018-01-10T06:40:40.232Z,79.54
2018-01-10T06:43:07.219Z,79.28
2018-01-10T06:45:33.459Z,79.04
2018-01-10T06:47:59.725Z,78.54
2018-01-10T06:50:25.943Z,78.24
2018-01-10T06:52:52.161Z,77.93
2018-01-10T06:55:18.425Z,76.97
2018-01-10T06:57:45.444Z,76.65
2018-01-10T07:00:15.984Z,76.42
2018-01-10T07:02:42.378Z,76.53
2018-01-10T07:05:08.667Z,76.54
2018-01-10T07:07:35.630Z,76.37
2018-01-10T07:10:01.912Z,76.37
2018-01-10T07:12:28.164Z,76.31
2018-01-10T07:14:54.398Z,75.97
2018-01-10T07:17:21.387Z,76.64
2018-01-10T07:19:47.658Z,76.86
2018-01-10T07:22:13.875Z,76.94
2018-01-10T07:24:40.139Z,76.55
2018-01-10T07:27:07.143Z,76.83
2018-01-10T07:29:33.483Z,77.04
2018-01-10T07:31:59.733Z,76.62
2018-01-10T07:34:25.993Z,76.00
2018-01-10T07:36:52.217Z,75.95
2018-01-10T07:39:18.503Z,75.93
2018-01-10T07:41:44.715Z,75.49
2018-01-10T07:44:10.940Z,75.06
2018-01-10T07:46:44.256Z,75.23
2018-01-10T07:49:10.483Z,74.72
2018-01-10T07:51:36.739Z,74.43
2018-01-10T07:54:03.756Z,74.42
2018-01-10T07:56:30.037Z,74.71
2018-01-10T07:58:56.267Z,74.78
2018-01-10T08:01:22.515Z,74.24
2018-01-10T08:03:48.764Z,74.23
2018-01-10T08:06:15.019Z,74.34
2018-01-10T08:08:41.243Z,74.19
2018-01-10T08:11:07.518Z,74.22
2018-01-10T08:13:33.741Z,74.33
2018-01-10T08:15:59.967Z,74.42
2018-01-10T08:18:26.238Z,74.78
2018-01-10T08:20:52.483Z,74.74
2018-01-10T08:23:19.510Z,74.46
2018-01-10T08:25:45.733Z,73.78
2018-01-10T08:28:11.980Z,73.91
2018-01-10T08:30:38.243Z,73.92
2018-01-10T08:33:05.268Z,73.46
2018-01-10T08:35:31.493Z,73.15
2018-01-10T08:37:57.769Z,72.29
2018-01-10T08:40:23.990Z,72.55
2018-01-10T08:42:50.968Z,72.29
2018-01-10T08:45:17.248Z,72.43
2018-01-10T08:47:43.474Z,71.97
2018-01-10T08:50:09.741Z,72.34
2018-01-10T08:52:36.012Z,71.78
2018-01-10T08:55:02.261Z,71.77
2018-01-10T08:57:28.493Z,71.70
2018-01-10T08:59:54.800Z,72.29
2018-01-10T09:02:21.064Z,72.62
2018-01-10T09:04:48.109Z,72.57
2018-01-10T09:07:15.083Z,72.25
2018-01-10T09:09:41.403Z,72.53
2018-01-10T09:12:07.660Z,72.35
2018-01-10T09:14:33.919Z,71.99
2018-01-10T09:17:00.174Z,71.19
2018-01-10T09:19:27.221Z,71.13
2018-01-10T09:21:54.264Z,70.92
2018-01-10T09:24:20.815Z,70.64
2018-01-10T09:26:47.828Z,70.18
2018-01-10T09:29:14.185Z,69.51
2018-01-10T09:31:41.182Z,68.73
2018-01-10T09:34:07.462Z,68.83
2018-01-10T09:36:34.532Z,68.15
2018-01-10T09:39:00.845Z,67.67
2018-01-10T09:41:27.819Z,68.01
2018-01-10T09:43:54.165Z,68.02
2018-01-10T09:46:20.448Z,67.98
2018-01-10T09:48:47.423Z,68.10
2018-01-10T09:51:13.713Z,68.17
2018-01-10T09:53:39.957Z,68.37
2018-01-10T09:56:06.982Z,68.37
2018-01-10T09:58:33.224Z,67.82
2018-01-10T10:00:59.513Z,67.61
2018-01-10T10:03:25.777Z,67.40
2018-01-10T10:05:52.040Z,67.12
2018-01-10T10:08:18.327Z,66.51
2018-01-10T10:10:44.579Z,65.24
2018-01-10T10:13:11.595Z,64.33
2018-01-10T10:15:37.820Z,64.19
2018-01-10T10:18:04.112Z,64.32
2018-01-10T10:20:30.380Z,64.54
2018-01-10T10:22:56.612Z,64.56
2018-01-10T10:25:23.016Z,64.31
2018-01-10T10:27:49.263Z,63.86
2018-01-10T10:30:15.684Z,63.30
2018-01-10T10:32:41.957Z,62.99
2018-01-10T10:35:08.224Z,62.19
2018-01-10T10:37:34.438Z,62.49
2018-01-10T10:40:01.420Z,63.10
2018-01-10T10:42:27.692Z,63.25
2018-01-10T10:44:53.935Z,62.81
2018-01-10T10:47:21.017Z,62.63
2018-01-10T10:49:47.227Z,62.04
2018-01-10T10:52:14.231Z,61.90
2018-01-10T10:54:40.477Z,61.54
2018-01-10T10:57:06.720Z,61.17
2018-01-10T10:59:33.699Z,61.21
2018-01-10T11:02:00.028Z,60.61
2018-01-10T11:04:26.373Z,60.90
2018-01-10T11:06:52.611Z,60.92
2018-01-10T11:09:18.831Z,60.09
2018-01-10T11:11:45.158Z,59.24
2018-01-10T11:14:11.416Z,56.72
2018-01-10T11:16:37.704Z,55.58
2018-01-10T11:19:04.073Z,53.18
2018-01-10T11:21:30.302Z,50.82
2018-01-10T11:23:56.535Z,50.15
2018-01-10T11:26:22.787Z,48.20
2018-01-10T11:28:49.051Z,47.11
2018-01-10T11:31:15.434Z,46.64
2018-01-10T11:33:41.728Z,44.65
2018-01-10T11:36:08.022Z,43.14
2018-01-10T11:38:35.407Z,40.70
2018-01-10T11:41:01.640Z,39.51
2018-01-10T11:43:27.928Z,38.22
2018-01-10T11:45:54.995Z,36.57
2018-01-10T11:48:21.225Z,35.30
2018-01-10T11:50:48.293Z,35.00
2018-01-10T11:53:14.525Z,35.25
2018-01-10T11:55:40.751Z,36.88
2018-01-10T11:58:07.102Z,37.09
2018-01-10T12:00:33.409Z,35.61
2018-01-10T12:03:00.287Z,35.68
2018-01-10T12:05:27.387Z,35.10
2018-01-10T12:07:54.427Z,35.62
2018-01-10T12:10:22.435Z,36.97
2018-01-10T12:12:48.723Z,38.44
2018-01-10T12:15:15.733Z,40.45
2018-01-10T12:17:42.940Z,42.98
2018-01-10T12:20:09.216Z,44.05
2018-01-10T12:22:35.472Z,44.65
2018-01-10T12:25:02.521Z,45.61
2018-01-10T12:27:28.844Z,47.12
2018-01-10T12:29:55.072Z,47.00
2018-01-10T12:32:21.396Z,47.25
2018-01-10T12:34:49.151Z,47.35
2018-01-10T12:37:15.599Z,47.35
2018-01-10T12:39:41.963Z,46.58
2018-01-10T12:42:08.199Z,46.41
2018-01-10T12:44:34.576Z,46.02
2018-01-10T12:47:00.949Z,45.67
2018-01-10T12:49:27.959Z,45.76
2018-01-10T12:51:54.249Z,45.24
2018-01-10T12:54:20.559Z,45.38
2018-01-10T12:56:47.543Z,44.92
2018-01-10T12:59:13.831Z,44.11
2018-01-10T13:01:47.871Z,43.51
2018-01-10T13:04:14.096Z,45.04
2018-01-10T13:06:40.363Z,46.18
2018-01-10T13:09:07.009Z,47.39
2018-01-10T13:11:33.299Z,48.67
2018-01-10T13:13:59.549Z,49.33
2018-01-10T13:16:25.818Z,49.36
2018-01-10T13:18:52.874Z,49.53
2018-01-10T13:21:19.110Z,49.27
2018-01-10T13:23:46.129Z,50.20
2018-01-10T13:26:12.400Z,49.09
2018-01-10T13:28:38.667Z,47.96
2018-01-10T13:31:04.948Z,47.78
2018-01-10T13:33:31.940Z,48.39
2018-01-10T13:35:58.225Z,48.68
2018-01-10T13:38:25.220Z,47.92
2018-01-10T13:40:51.550Z,46.48
2018-01-10T13:43:17.861Z,45.75
2018-01-10T13:45:44.185Z,43.96
2018-01-10T13:48:10.436Z,43.30
2018-01-10T13:50:36.701Z,44.26
2018-01-10T13:53:03.020Z,43.87
2018-01-10T13:55:29.279Z,41.53
2018-01-10T13:57:56.335Z,38.51
2018-01-10T14:00:23.606Z,35.90
2018-01-10T14:02:49.865Z,35.19
2018-01-10T14:05:16.151Z,34.77
2018-01-10T14:07:42.423Z,36.83
2018-01-10T14:10:08.731Z,40.18
2018-01-10T14:12:35.039Z,41.97
2018-01-10T14:15:01.299Z,43.92
2018-01-10T14:17:28.312Z,45.12
2018-01-10T14:19:55.311Z,46.70
2018-01-10T14:22:21.544Z,47.72
2018-01-10T14:24:47.846Z,48.38
2018-01-10T14:27:14.100Z,49.96
2018-01-10T14:29:40.360Z,51.03
2018-01-10T14:32:06.650Z,51.14
2018-01-10T14:34:32.877Z,51.69
2018-01-10T14:36:59.133Z,52.32
2018-01-10T14:39:25.428Z,53.12
2018-01-10T14:41:51.658Z,53.29
2018-01-10T14:44:17.902Z,53.50
2018-01-10T14:46:46.048Z,54.24
2018-01-10T14:49:12.340Z,54.39
2018-01-10T14:51:38.601Z,54.96
2018-01-10T14:54:04.830Z,55.25
2018-01-10T14:56:31.127Z,55.83
2018-01-10T14:58:58.101Z,55.95
2018-01-10T15:01:24.567Z,57.18
2018-01-10T15:03:50.833Z,58.02
2018-01-10T15:06:17.102Z,58.61
2018-01-10T15:08:43.394Z,59.40
2018-01-10T15:11:09.685Z,59.50
2018-01-10T15:13:35.921Z,60.09
2018-01-10T15:16:02.177Z,60.35
2018-01-10T15:18:28.458Z,60.76
2018-01-10T15:20:54.744Z,61.52
2018-01-10T15:23:21.063Z,62.35
2018-01-10T15:25:47.308Z,62.76
2018-01-10T15:28:14.463Z,63.33
2018-01-10T15:30:41.488Z,63.77
2018-01-10T15:33:07.748Z,64.97
2018-01-10T15:35:34.755Z,65.42
2018-01-10T15:38:01.004Z,65.87
2018-01-10T15:40:27.296Z,65.99
2018-01-10T15:42:53.623Z,66.12
2018-01-10T15:45:19.966Z,66.59
2018-01-10T15:47:46.208Z,66.88
2018-01-10T15:50:12.512Z,67.43
2018-01-10T15:52:39.205Z,67.79
2018-01-10T15:55:05.601Z,68.34
2018-01-10T15:57:32.011Z,68.27
2018-01-10T15:59:58.575Z,68.54
2018-01-10T16:02:24.896Z,68.83
2018-01-10T16:04:51.183Z,69.17
2018-01-10T16:07:17.503Z,69.43
2018-01-10T16:09:44.501Z,69.58
2018-01-10T16:12:10.764Z,69.93
2018-01-10T16:14:37.048Z,70.19
2018-01-10T16:17:03.329Z,70.46
2018-01-10T16:19:30.394Z,70.42
2018-01-10T16:21:56.691Z,70.78
2018-01-10T16:24:23.068Z,71.16
2018-01-10T16:26:50.066Z,71.23
2018-01-10T16:29:16.463Z,71.48
2018-01-10T16:31:42.926Z,71.85
2018-01-10T16:34:09.272Z,72.03
2018-01-10T16:36:35.714Z,72.23
2018-01-10T16:39:02.105Z,72.55
2018-01-10T16:41:28.548Z,73.13
2018-01-10T16:43:55.203Z,73.02
2018-01-10T16:46:21.535Z,73.00
2018-01-10T16:48:47.772Z,73.29
2018-01-10T16:51:14.294Z,73.14
2018-01-10T16:53:40.718Z,73.08
2018-01-10T16:56:07.062Z,73.18
2018-01-10T16:58:33.610Z,73.12
2018-01-10T17:00:59.987Z,73.63
2018-01-10T17:03:27.148Z,73.99
2018-01-10T17:05:53.657Z,74.12
2018-01-10T17:08:21.080Z,74.04
2018-01-10T17:10:47.517Z,73.92
2018-01-10T17:13:13.906Z,74.06
2018-01-10T17:15:40.198Z,74.17
2018-01-10T17:18:07.286Z,74.46
2018-01-10T17:20:33.565Z,74.87
2018-01-10T17:22:59.842Z,74.78
2018-01-10T17:25:26.300Z,74.89
2018-01-10T17:27:52.608Z,74.64
2018-01-10T17:30:18.975Z,74.57
2018-01-10T17:32:45.268Z,74.35
2018-01-10T17:35:11.557Z,74.85
2018-01-10T17:37:37.868Z,74.86
2018-01-10T17:40:04.239Z,75.07
2018-01-10T17:42:31.318Z,75.79
2018-01-10T17:44:57.566Z,76.78
2018-01-10T17:47:23.849Z,77.26
2018-01-10T17:49:50.141Z,77.50
2018-01-10T17:52:16.433Z,77.05
2018-01-10T17:54:42.765Z,77.00
2018-01-10T17:57:09.058Z,76.71
2018-01-10T17:59:36.053Z,76.24
2018-01-10T18:02:02.393Z,76.23
2018-01-10T18:04:28.846Z,76.14
2018-01-10T18:06:55.174Z,75.49
2018-01-10T18:09:21.441Z,75.89
2018-01-10T18:11:48.443Z,76.52
2018-01-10T18:14:14.739Z,75.31
2018-01-10T18:16:41.004Z,76.46
2018-01-10T18:19:07.316Z,77.12
2018-01-10T18:21:33.605Z,77.21
2018-01-10T18:23:59.892Z,77.30
2018-01-10T18:26:26.162Z,77.28
2018-01-10T18:28:52.488Z,77.41
2018-01-10T18:31:19.516Z,77.49
2018-01-10T18:33:45.814Z,77.27
2018-01-10T18:36:12.134Z,77.12
2018-01-10T18:38:38.420Z,78.04
2018-01-10T18:41:04.690Z,78.20
2018-01-10T18:43:31.853Z,78.12
2018-01-10T18:45:58.189Z,77.93
2018-01-10T18:48:24.421Z,77.21
2018-01-10T18:50:50.795Z,77.17
2018-01-10T18:53:17.091Z,77.44
2018-01-10T18:55:43.380Z,77.63
2018-01-10T18:58:10.379Z,77.71
2018-01-10T19:00:36.681Z,77.77
2018-01-10T19:03:02.967Z,77.32
2018-01-10T19:05:29.257Z,76.99
2018-01-10T19:07:55.549Z,76.78
2018-01-10T19:10:27.752Z,75.79
2018-01-10T19:12:54.060Z,75.43
2018-01-10T19:15:23.217Z,75.37
2018-01-10T19:17:49.616Z,75.37
2018-01-10T19:20:15.972Z,75.12
2018-01-10T19:22:42.217Z,75.36
2018-01-10T19:25:08.579Z,75.63
2018-01-10T19:27:34.837Z,75.31
2018-01-10T19:30:08.131Z,74.90
2018-01-10T19:32:34.520Z,74.78
2018-01-10T19:35:01.536Z,74.79
2018-01-10T19:37:27.780Z,74.53
2018-01-10T19:39:56.673Z,74.10
2018-01-10T19:42:22.947Z,73.90
2018-01-10T19:44:49.269Z,73.71
2018-01-10T19:47:15.573Z,73.83
2018-01-10T19:49:41.880Z,73.70
2018-01-10T19:52:08.262Z,73.73
2018-01-10T19:54:34.529Z,73.48
2018-01-10T19:57:00.871Z,73.35
2018-01-10T19:59:28.074Z,73.54
2018-01-10T20:01:54.350Z,73.52
2018-01-10T20:04:20.722Z,73.66
2018-01-10T20:06:47.771Z,73.20
2018-01-10T20:09:15.086Z,73.50
2018-01-10T20:11:41.354Z,73.71
2018-01-10T20:14:08.382Z,73.61
2018-01-10T20:16:34.630Z,73.62
2018-01-10T20:19:01.695Z,73.56
2018-01-10T20:21:27.998Z,73.31
2018-01-10T20:23:54.348Z,73.21
2018-01-10T20:26:21.372Z,73.22
2018-01-10T20:28:47.626Z,73.28
2018-01-10T20:31:14.005Z,72.77
2018-01-10T20:33:40.320Z,72.22
2018-01-10T20:36:06.674Z,72.11
2018-01-10T20:38:32.960Z,72.58
2018-01-10T20:41:00.020Z,72.72
2018-01-10T20:43:26.309Z,73.41
2018-01-10T20:45:52.612Z,73.29
2018-01-10T20:48:18.863Z,73.17
2018-01-10T20:50:45.761Z,72.94
2018-01-10T20:53:12.103Z,73.08
2018-01-10T20:55:38.389Z,73.11
2018-01-10T20:58:05.438Z,73.11
2018-01-10T21:00:32.466Z,73.57
2018-01-10T21:03:00.263Z,74.12
2018-01-10T21:05:27.276Z,74.63
2018-01-10T21:07:53.668Z,74.87
2018-01-10T21:10:19.972Z,74.44
2018-01-10T21:12:46.946Z,74.39
2018-01-10T21:15:13.226Z,74.85
2018-01-10T21:17:39.476Z,75.18
2018-01-10T21:20:06.787Z,74.68
2018-01-10T21:22:33.048Z,74.55
2018-01-10T21:25:00.115Z,75.16
2018-01-10T21:27:26.471Z,75.09
2018-01-10T21:29:52.733Z,74.95
2018-01-10T21:32:19.129Z,74.60
2018-01-10T21:34:45.475Z,74.83
2018-01-10T21:37:11.791Z,74.66
2018-01-10T21:39:38.109Z,74.68
2018-01-10T21:42:04.390Z,74.84
2018-01-10T21:44:30.687Z,74.60
2018-01-10T21:46:56.958Z,74.22
2018-01-10T21:49:23.231Z,74.21
2018-01-10T21:51:49.516Z,74.48
2018-01-10T21:54:15.912Z,74.56
2018-01-10T21:56:42.283Z,74.35
2018-01-10T21:59:08.520Z,74.75
2018-01-10T22:01:34.860Z,74.61
2018-01-10T22:04:01.904Z,74.76
2018-01-10T22:06:29.014Z,74.81
2018-01-10T22:08:55.288Z,74.96
2018-01-10T22:11:22.272Z,75.30
2018-01-10T22:13:48.536Z,74.40
2018-01-10T22:16:14.762Z,74.23
2018-01-10T22:18:41.350Z,74.14
2018-01-10T22:21:07.660Z,74.29
2018-01-10T22:23:34.750Z,74.20
2018-01-10T22:26:01.037Z,74.57
2018-01-10T22:28:28.062Z,74.05
2018-01-10T22:30:54.361Z,74.15
2018-01-10T22:33:20.669Z,74.19
2018-01-10T22:35:46.981Z,74.15
2018-01-10T22:38:13.997Z,74.12
2018-01-10T22:40:40.291Z,74.31
2018-01-10T22:43:06.556Z,74.38
2018-01-10T22:45:32.827Z,74.64
2018-01-10T22:47:59.874Z,74.60
2018-01-10T22:50:26.836Z,74.24
2018-01-10T22:52:53.101Z,74.62
2018-01-10T22:55:19.340Z,74.30
2018-01-10T22:57:45.638Z,74.36
2018-01-10T23:00:11.900Z,74.73
2018-01-10T23:02:38.356Z,74.61
2018-01-10T23:05:04.660Z,74.28
2018-01-10T23:07:30.956Z,73.58
2018-01-10T23:09:57.256Z,73.52
2018-01-10T23:12:24.296Z,73.73
2018-01-10T23:14:50.546Z,73.79
2018-01-10T23:17:16.827Z,73.48
2018-01-10T23:19:43.062Z,73.80
2018-01-10T23:22:09.292Z,74.33
2018-01-10T23:24:35.558Z,74.46
2018-01-10T23:27:02.551Z,74.60
2018-01-10T23:29:28.829Z,74.66
2018-01-10T23:31:55.814Z,74.76
2018-01-10T23:34:22.059Z,73.95
2018-01-10T23:36:48.343Z,74.12
2018-01-10T23:39:15.375Z,74.47
2018-01-10T23:41:42.343Z,74.16
2018-01-10T23:44:08.593Z,73.81
2018-01-10T23:46:34.853Z,73.24
2018-01-10T23:49:01.076Z,73.25
2018-01-10T23:51:27.326Z,73.49
2018-01-10T23:53:53.588Z,73.62
2018-01-10T23:56:19.850Z,72.81
2018-01-10T23:58:46.087Z,72.66
